Time;durP1;ratioP1;P1;durP2;ratioP2;P2;SDS_P1;SDS_P2;PMS_P1;PMS_P2;Temp;Humidity;BMP_temperature;BMP_pressure;BME280_temperature;BME280_humidity;BME280_pressure;Samples;Min_cycle;Max_cycle;Signal;HPM_P1;HPM_P2
2022/03/31 00:00:44;;;;;;;27.47;23.63;;;9.00;99.90;;;;;;5006343;28;20189;-86
2022/03/31 00:03:13;;;;;;;27.90;23.07;;;8.90;99.90;;;;;;5008308;28;20340;-86
2022/03/31 00:05:41;;;;;;;26.00;23.20;;;8.90;99.90;;;;;;5011845;28;20197;-85
2022/03/31 00:08:15;;;;;;;28.93;23.10;;;8.90;99.90;;;;;;5006173;28;20214;-85
2022/03/31 00:10:45;;;;;;;27.63;23.33;;;8.90;99.90;;;;;;5019875;28;20193;-85
2022/03/31 00:13:18;;;;;;;28.00;23.00;;;8.80;99.90;;;;;;5015442;28;20213;-85
2022/03/31 00:15:44;;;;;;;27.03;23.07;;;8.80;99.90;;;;;;5015033;28;20196;-85
2022/03/31 00:18:13;;;;;;;31.00;23.60;;;8.80;99.90;;;;;;5021484;28;20201;-86
2022/03/31 00:20:39;;;;;;;29.70;25.30;;;8.80;99.90;;;;;;5014821;28;20542;-85
2022/03/31 00:23:07;;;;;;;27.43;24.43;;;8.80;99.90;;;;;;5011837;28;20194;-86
2022/03/31 00:25:33;;;;;;;32.57;25.47;;;8.80;99.90;;;;;;5021701;28;20208;-85
2022/03/31 00:28:03;;;;;;;32.10;25.10;;;8.60;99.90;;;;;;5013227;28;20210;-85
2022/03/31 00:30:28;;;;;;;29.27;24.30;;;8.70;99.90;;;;;;5010852;28;20182;-85
2022/03/31 00:32:54;;;;;;;31.63;24.90;;;8.60;99.90;;;;;;5015322;28;20573;-85
2022/03/31 00:35:20;;;;;;;33.90;25.30;;;8.60;99.90;;;;;;5010483;28;20187;-85
2022/03/31 00:37:47;;;;;;;29.87;26.20;;;8.60;99.90;;;;;;5011610;28;20713;-86
2022/03/31 00:40:15;;;;;;;28.93;24.43;;;8.50;99.90;;;;;;5013312;28;20245;-85
2022/03/31 00:42:47;;;;;;;34.13;26.53;;;8.60;99.90;;;;;;5008598;28;20258;-85
2022/03/31 00:45:18;;;;;;;29.30;23.63;;;8.50;99.90;;;;;;5008690;28;20272;-85
2022/03/31 00:47:44;;;;;;;28.13;25.03;;;8.60;99.90;;;;;;5011344;28;20704;-86
2022/03/31 00:50:12;;;;;;;28.47;23.43;;;8.60;99.90;;;;;;5009045;28;20240;-86
2022/03/31 00:52:38;;;;;;;28.90;25.23;;;8.70;99.90;;;;;;5010598;28;20252;-86
2022/03/31 00:55:05;;;;;;;28.57;24.63;;;8.70;99.90;;;;;;5008877;28;20198;-85
2022/03/31 00:57:33;;;;;;;30.47;25.00;;;8.80;99.90;;;;;;5009747;28;20214;-86
2022/03/31 00:59:58;;;;;;;26.67;22.83;;;8.90;99.90;;;;;;5008636;28;20177;-86
2022/03/31 01:02:30;;;;;;;27.50;24.13;;;8.90;99.90;;;;;;5009536;28;20225;-85
2022/03/31 01:05:01;;;;;;;29.17;24.90;;;8.90;99.90;;;;;;5011674;28;20186;-86
2022/03/31 01:07:27;;;;;;;25.90;22.73;;;9.00;99.90;;;;;;5019187;28;20217;-86
2022/03/31 01:09:58;;;;;;;28.70;24.13;;;9.00;99.90;;;;;;5006181;28;20185;-85
2022/03/31 01:12:24;;;;;;;28.17;23.13;;;9.00;99.90;;;;;;5008538;28;20694;-86
2022/03/31 01:15:06;;;;;;;26.37;23.27;;;8.90;99.90;;;;;;5014870;28;20263;-86
2022/03/31 01:17:32;;;;;;;24.13;21.50;;;9.00;99.90;;;;;;5029352;28;20285;-85
2022/03/31 01:19:58;;;;;;;26.97;23.40;;;9.00;99.90;;;;;;5017881;28;20683;-86
2022/03/31 01:22:33;;;;;;;24.80;22.13;;;9.00;99.90;;;;;;5012999;28;20193;-86
2022/03/31 01:25:00;;;;;;;24.80;22.03;;;9.00;99.90;;;;;;5012840;28;20183;-86
2022/03/31 01:27:26;;;;;;;23.83;20.00;;;9.00;99.90;;;;;;5013314;28;20775;-86
2022/03/31 01:29:53;;;;;;;24.33;21.73;;;9.00;99.90;;;;;;5011409;28;20229;-86
2022/03/31 01:32:19;;;;;;;22.40;20.10;;;9.10;99.90;;;;;;5021079;28;20213;-86
2022/03/31 01:34:46;;;;;;;23.30;20.10;;;9.00;99.90;;;;;;5012593;28;20557;-85
2022/03/31 01:37:13;;;;;;;22.90;20.50;;;9.00;99.90;;;;;;5014948;28;20238;-86
2022/03/31 01:39:39;;;;;;;21.47;18.90;;;9.00;99.90;;;;;;5011417;28;20217;-85
2022/03/31 01:42:05;;;;;;;20.90;18.70;;;8.90;99.90;;;;;;5011575;28;20256;-85
2022/03/31 01:44:31;;;;;;;19.90;17.90;;;8.90;99.90;;;;;;5007681;28;20697;-86
2022/03/31 01:46:57;;;;;;;21.20;17.97;;;8.90;99.90;;;;;;5017132;28;20229;-86
2022/03/31 01:49:23;;;;;;;18.93;16.93;;;8.90;99.90;;;;;;5007923;28;20258;-86
2022/03/31 01:51:49;;;;;;;20.70;18.07;;;8.90;99.90;;;;;;5011440;28;20217;-85
2022/03/31 01:54:14;;;;;;;18.90;16.90;;;9.00;99.90;;;;;;5011250;28;20878;-86
2022/03/31 01:56:44;;;;;;;20.93;17.47;;;9.00;99.90;;;;;;5012900;28;20642;-86
2022/03/31 01:59:10;;;;;;;17.97;16.17;;;9.00;99.90;;;;;;5015001;28;20199;-86
2022/03/31 02:01:36;;;;;;;18.93;15.40;;;9.00;99.90;;;;;;5009433;28;20193;-85
2022/03/31 02:04:01;;;;;;;17.00;15.37;;;8.90;99.90;;;;;;5024851;28;20195;-85
2022/03/31 02:06:27;;;;;;;15.00;13.50;;;8.90;99.90;;;;;;5008701;28;20285;-86
2022/03/31 02:08:55;;;;;;;17.07;15.40;;;8.90;99.80;;;;;;5005453;28;20222;-85
2022/03/31 02:11:20;;;;;;;15.53;14.03;;;8.90;99.60;;;;;;5008681;28;20217;-85
2022/03/31 02:13:47;;;;;;;15.97;14.17;;;9.00;99.10;;;;;;5006285;28;20197;-84
2022/03/31 02:16:13;;;;;;;15.83;14.23;;;8.90;98.20;;;;;;5007378;28;20208;-86
2022/03/31 02:18:39;;;;;;;14.17;12.87;;;8.90;97.80;;;;;;5010790;28;20269;-86
2022/03/31 02:21:05;;;;;;;14.87;13.37;;;8.90;97.60;;;;;;5008064;28;20244;-85
2022/03/31 02:23:31;;;;;;;13.90;12.60;;;8.90;97.90;;;;;;5008752;28;20186;-86
2022/03/31 02:25:57;;;;;;;13.63;12.23;;;8.80;97.50;;;;;;5009126;28;20182;-86
2022/03/31 02:28:22;;;;;;;13.70;12.40;;;8.80;98.10;;;;;;5008521;28;20276;-86
2022/03/31 02:30:48;;;;;;;14.43;13.00;;;8.90;97.60;;;;;;5010455;28;20201;-86
2022/03/31 02:33:14;;;;;;;14.20;12.93;;;8.80;97.00;;;;;;5008828;28;20307;-86
2022/03/31 02:35:39;;;;;;;12.67;11.53;;;8.90;97.10;;;;;;5006715;28;20193;-86
2022/03/31 02:38:05;;;;;;;13.13;11.93;;;8.90;97.10;;;;;;5014667;28;20787;-85
2022/03/31 02:40:31;;;;;;;13.53;12.27;;;8.80;96.70;;;;;;5009281;28;20194;-86
2022/03/31 02:42:57;;;;;;;12.30;11.20;;;8.80;97.40;;;;;;5008907;28;20273;-86
2022/03/31 02:45:23;;;;;;;12.67;11.47;;;8.70;96.70;;;;;;5009863;28;20196;-86
2022/03/31 02:47:49;;;;;;;13.30;12.00;;;8.60;97.20;;;;;;5011252;28;20308;-85
2022/03/31 02:50:17;;;;;;;14.77;13.17;;;8.40;98.40;;;;;;5011544;28;20807;-86
2022/03/31 02:55:28;;;;;;;14.83;13.43;;;8.40;99.80;;;;;;5011399;28;20221;-85
2022/03/31 02:58:02;;;;;;;14.43;13.03;;;8.30;99.90;;;;;;5011044;28;20208;-85
2022/03/31 03:00:30;;;;;;;14.57;13.20;;;8.20;99.90;;;;;;5020149;28;20194;-85
2022/03/31 03:03:01;;;;;;;14.63;13.13;;;8.20;99.90;;;;;;5007048;28;20190;-85
2022/03/31 03:05:27;;;;;;;15.63;14.07;;;8.20;99.90;;;;;;5007080;28;20196;-85
2022/03/31 03:07:52;;;;;;;14.93;13.53;;;8.10;99.90;;;;;;5006190;28;20731;-86
2022/03/31 03:10:18;;;;;;;14.90;13.50;;;8.10;99.90;;;;;;5004065;28;20209;-85
2022/03/31 03:12:44;;;;;;;14.33;12.93;;;7.90;99.90;;;;;;5006563;28;20240;-85
2022/03/31 03:15:10;;;;;;;15.33;13.83;;;8.10;99.90;;;;;;5010122;28;20189;-86
2022/03/31 03:17:44;;;;;;;15.27;13.77;;;8.10;99.90;;;;;;5014191;28;20712;-86
2022/03/31 03:20:13;;;;;;;16.63;14.93;;;8.00;99.90;;;;;;5019931;28;20308;-86
2022/03/31 03:22:44;;;;;;;16.57;14.97;;;8.00;99.90;;;;;;5018919;28;20241;-86
2022/03/31 03:25:11;;;;;;;15.83;14.33;;;7.90;99.90;;;;;;5010693;28;20261;-86
2022/03/31 03:27:38;;;;;;;17.00;15.20;;;7.70;99.90;;;;;;5013156;28;20248;-85
2022/03/31 03:30:04;;;;;;;15.37;13.77;;;7.60;99.90;;;;;;5008321;28;20194;-85
2022/03/31 03:32:30;;;;;;;16.00;14.50;;;7.60;99.90;;;;;;5012504;28;20696;-86
2022/03/31 03:34:56;;;;;;;16.30;14.50;;;7.50;99.90;;;;;;5009245;28;20213;-85
2022/03/31 03:37:21;;;;;;;15.70;14.20;;;7.40;99.90;;;;;;5009618;28;20685;-86
2022/03/31 03:39:47;;;;;;;17.33;15.53;;;7.40;99.90;;;;;;5007930;28;20202;-86
2022/03/31 03:42:13;;;;;;;16.47;14.87;;;7.50;99.90;;;;;;5008781;28;20182;-86
2022/03/31 03:44:38;;;;;;;16.17;14.53;;;7.50;99.90;;;;;;5007734;28;20583;-86
2022/03/31 03:47:05;;;;;;;15.93;14.33;;;7.60;99.90;;;;;;5007287;28;20230;-86
2022/03/31 03:49:30;;;;;;;16.10;14.43;;;7.70;99.90;;;;;;5011499;28;20201;-86
2022/03/31 03:51:56;;;;;;;15.87;14.17;;;7.50;99.90;;;;;;5006016;28;20215;-86
2022/03/31 03:54:22;;;;;;;17.10;14.87;;;7.40;99.90;;;;;;5012386;28;20210;-86
2022/03/31 03:56:47;;;;;;;16.17;14.53;;;7.20;99.90;;;;;;5023279;28;20213;-86
2022/03/31 03:59:16;;;;;;;15.47;13.97;;;7.30;99.90;;;;;;5007808;28;20179;-86
2022/03/31 04:01:41;;;;;;;16.50;14.73;;;7.20;99.90;;;;;;5008488;28;20204;-85
2022/03/31 04:04:07;;;;;;;15.87;14.27;;;7.20;99.90;;;;;;5010173;28;20201;-86
2022/03/31 04:06:33;;;;;;;16.17;14.57;;;7.20;99.90;;;;;;5008474;28;20230;-86
2022/03/31 04:08:58;;;;;;;16.30;14.70;;;7.20;99.90;;;;;;5001954;28;20197;-86
2022/03/31 04:11:24;;;;;;;15.80;14.20;;;7.10;99.90;;;;;;5009234;28;20217;-86
2022/03/31 04:13:50;;;;;;;15.37;13.87;;;7.00;99.90;;;;;;5010514;28;20189;-86
2022/03/31 04:16:15;;;;;;;16.50;14.70;;;6.90;99.90;;;;;;5013635;28;20232;-86
2022/03/31 04:18:41;;;;;;;16.73;15.00;;;7.00;99.90;;;;;;5009487;28;20617;-86
2022/03/31 04:21:07;;;;;;;15.70;14.10;;;7.00;99.90;;;;;;5018058;28;20190;-86
2022/03/31 04:23:32;;;;;;;16.17;14.47;;;7.00;99.90;;;;;;4999939;28;20200;-86
2022/03/31 04:25:58;;;;;;;15.53;14.00;;;7.00;99.90;;;;;;5012771;28;20202;-86
2022/03/31 04:28:24;;;;;;;16.03;14.40;;;7.10;99.90;;;;;;5012395;28;20182;-85
2022/03/31 04:30:50;;;;;;;16.50;14.80;;;7.10;99.90;;;;;;5012606;28;20247;-86
2022/03/31 04:33:15;;;;;;;16.40;14.73;;;7.10;99.90;;;;;;5014842;28;20217;-87
2022/03/31 04:35:41;;;;;;;16.30;14.50;;;7.20;99.90;;;;;;5013972;28;20665;-87
2022/03/31 04:38:07;;;;;;;16.07;14.40;;;7.00;99.90;;;;;;5011031;28;20221;-86
2022/03/31 04:40:32;;;;;;;16.70;14.43;;;7.00;99.90;;;;;;5013427;28;20185;-86
2022/03/31 04:42:58;;;;;;;17.30;15.50;;;6.90;99.90;;;;;;5011704;28;20199;-88
2022/03/31 04:45:24;;;;;;;17.77;13.93;;;7.10;99.90;;;;;;5018636;28;20230;-86
2022/03/31 04:47:50;;;;;;;16.60;14.33;;;7.20;99.90;;;;;;5022359;28;20209;-86
2022/03/31 04:50:15;;;;;;;16.90;15.20;;;7.10;99.90;;;;;;5013633;28;20182;-86
2022/03/31 04:52:42;;;;;;;15.50;14.00;;;7.00;99.90;;;;;;5033182;28;20211;-86
2022/03/31 04:55:09;;;;;;;16.73;14.63;;;6.90;99.90;;;;;;5017054;28;20272;-85
2022/03/31 04:57:35;;;;;;;18.17;14.43;;;6.90;99.90;;;;;;5023069;28;20209;-86
2022/03/31 05:00:01;;;;;;;15.17;13.70;;;7.00;99.90;;;;;;5021728;28;20182;-86
2022/03/31 05:02:30;;;;;;;16.30;14.60;;;7.00;99.90;;;;;;5018088;28;20236;-86
2022/03/31 05:04:55;;;;;;;15.40;13.90;;;7.10;99.90;;;;;;5006540;28;20189;-86
2022/03/31 05:07:21;;;;;;;17.47;15.67;;;7.10;99.90;;;;;;5009905;28;20799;-86
2022/03/31 05:09:46;;;;;;;16.73;14.97;;;7.10;99.90;;;;;;5012714;28;20560;-86
2022/03/31 05:12:13;;;;;;;17.10;15.40;;;7.00;99.90;;;;;;5019376;28;20213;-86
2022/03/31 05:14:39;;;;;;;18.03;16.27;;;7.10;99.90;;;;;;5020906;28;20182;-85
2022/03/31 05:17:05;;;;;;;16.83;15.13;;;7.10;99.90;;;;;;5020567;28;20229;-86
2022/03/31 05:19:31;;;;;;;18.07;16.17;;;6.90;99.90;;;;;;5020734;28;20185;-86
2022/03/31 05:21:57;;;;;;;17.17;15.37;;;6.70;99.90;;;;;;5021180;28;20241;-86
2022/03/31 05:24:23;;;;;;;18.93;17.03;;;6.80;99.90;;;;;;5022134;28;20186;-85
2022/03/31 05:26:52;;;;;;;17.83;15.73;;;7.00;99.90;;;;;;5018335;28;20240;-85
2022/03/31 05:29:18;;;;;;;16.67;14.97;;;7.00;99.90;;;;;;5026765;28;20256;-86
2022/03/31 05:31:44;;;;;;;16.73;14.97;;;7.00;99.90;;;;;;5021634;28;20237;-86
2022/03/31 05:34:10;;;;;;;18.77;15.43;;;7.00;99.90;;;;;;5019087;28;20206;-86
2022/03/31 05:36:36;;;;;;;16.77;15.03;;;7.00;99.90;;;;;;5025291;28;20210;-86
2022/03/31 05:39:02;;;;;;;16.70;15.00;;;6.80;99.90;;;;;;5021796;28;20201;-85
2022/03/31 05:41:29;;;;;;;17.37;15.67;;;6.90;99.90;;;;;;5009504;28;20190;-85
2022/03/31 05:43:55;;;;;;;16.53;14.80;;;6.80;99.90;;;;;;5019882;28;20197;-85
2022/03/31 05:46:22;;;;;;;16.43;14.73;;;6.80;99.90;;;;;;4998694;28;20256;-84
2022/03/31 05:48:51;;;;;;;18.40;15.50;;;6.80;99.90;;;;;;5015596;28;20209;-85
2022/03/31 05:51:17;;;;;;;16.47;14.63;;;6.80;99.90;;;;;;5011142;28;20604;-85
2022/03/31 05:53:43;;;;;;;18.77;16.80;;;6.80;99.90;;;;;;5011634;28;20221;-85
2022/03/31 05:56:09;;;;;;;18.70;16.40;;;6.80;99.90;;;;;;5011274;28;20233;-85
2022/03/31 05:58:35;;;;;;;17.47;15.70;;;6.80;99.90;;;;;;5011509;28;20212;-84
2022/03/31 06:01:01;;;;;;;18.43;16.47;;;6.80;99.90;;;;;;5010478;28;20186;-85
2022/03/31 06:03:26;;;;;;;22.70;20.50;;;6.70;99.90;;;;;;5011502;28;20572;-85
2022/03/31 06:05:53;;;;;;;19.77;17.43;;;6.60;99.90;;;;;;5009635;28;20245;-85
2022/03/31 06:08:18;;;;;;;18.90;17.00;;;6.60;99.90;;;;;;5010426;28;20814;-85
2022/03/31 06:10:45;;;;;;;18.33;16.20;;;6.70;99.90;;;;;;5010983;28;20193;-85
2022/03/31 06:13:12;;;;;;;17.97;16.00;;;6.70;99.90;;;;;;5011056;28;20221;-86
2022/03/31 06:15:37;;;;;;;19.13;16.80;;;6.70;99.90;;;;;;5008716;28;20243;-85
2022/03/31 06:18:04;;;;;;;19.23;17.13;;;6.70;99.90;;;;;;5010484;28;20209;-83
2022/03/31 06:20:31;;;;;;;18.20;16.40;;;6.80;99.90;;;;;;5008919;28;20194;-85
2022/03/31 06:22:57;;;;;;;18.83;16.80;;;6.90;99.90;;;;;;5007645;28;20242;-84
2022/03/31 06:25:23;;;;;;;18.77;16.27;;;6.80;99.90;;;;;;5009732;28;20198;-84
2022/03/31 06:27:49;;;;;;;21.87;16.90;;;6.70;99.90;;;;;;5005452;28;20680;-84
2022/03/31 06:30:16;;;;;;;17.70;15.73;;;6.80;99.90;;;;;;5003129;28;20217;-84
2022/03/31 06:32:42;;;;;;;18.27;15.83;;;6.80;99.90;;;;;;5005855;28;20218;-84
2022/03/31 06:35:14;;;;;;;18.50;16.30;;;6.70;99.90;;;;;;5005548;28;20735;-84
2022/03/31 06:37:41;;;;;;;18.80;16.80;;;6.70;99.90;;;;;;5004863;28;20213;-85
2022/03/31 06:40:09;;;;;;;17.43;15.63;;;6.70;99.90;;;;;;5004522;28;20246;-85
2022/03/31 06:42:35;;;;;;;18.87;16.83;;;6.70;99.90;;;;;;4985681;28;20785;-85
2022/03/31 06:45:02;;;;;;;18.57;15.97;;;6.60;99.90;;;;;;5008403;28;20213;-85
2022/03/31 06:47:28;;;;;;;19.00;16.30;;;6.70;99.90;;;;;;5008823;28;20245;-85
2022/03/31 06:49:54;;;;;;;22.03;16.30;;;6.70;99.90;;;;;;5005265;28;20757;-84
2022/03/31 06:52:19;;;;;;;18.53;15.53;;;6.60;99.90;;;;;;5004935;28;20553;-84
2022/03/31 06:54:45;;;;;;;17.80;15.90;;;6.70;99.90;;;;;;5004055;28;20229;-85
2022/03/31 06:57:12;;;;;;;18.83;15.13;;;6.80;99.90;;;;;;5001867;28;20213;-85
2022/03/31 06:59:37;;;;;;;18.93;16.57;;;6.80;99.90;;;;;;5004409;28;20236;-85
2022/03/31 07:02:04;;;;;;;18.47;16.37;;;6.90;99.90;;;;;;5003124;28;20197;-84
2022/03/31 07:04:29;;;;;;;18.40;16.60;;;6.80;99.90;;;;;;5004042;28;20190;-84
2022/03/31 07:06:55;;;;;;;18.03;16.07;;;6.80;99.90;;;;;;5008010;28;20704;-84
2022/03/31 07:09:20;;;;;;;18.43;16.40;;;6.90;99.90;;;;;;5005926;28;20233;-84
2022/03/31 07:11:46;;;;;;;19.33;16.30;;;7.00;99.90;;;;;;5004096;28;20665;-85
2022/03/31 07:14:12;;;;;;;18.67;16.70;;;6.90;99.90;;;;;;5004605;28;20190;-84
2022/03/31 07:16:38;;;;;;;20.57;16.30;;;6.90;99.90;;;;;;5005206;28;20260;-85
2022/03/31 07:19:03;;;;;;;19.10;17.07;;;7.00;99.90;;;;;;5005834;28;20187;-84
2022/03/31 07:21:30;;;;;;;19.30;16.83;;;7.00;99.90;;;;;;5008939;28;20181;-84
2022/03/31 07:23:55;;;;;;;21.40;16.00;;;6.90;99.90;;;;;;4992715;28;20588;-85
2022/03/31 07:26:22;;;;;;;21.23;17.20;;;6.90;99.90;;;;;;5004264;28;20241;-84
2022/03/31 07:28:48;;;;;;;20.47;17.27;;;6.70;99.90;;;;;;5007517;28;20285;-85
2022/03/31 07:31:15;;;;;;;23.07;18.00;;;6.70;99.90;;;;;;5009152;28;20181;-83
2022/03/31 07:33:40;;;;;;;20.70;17.33;;;6.80;99.90;;;;;;5012281;28;20209;-83
2022/03/31 07:36:07;;;;;;;18.40;16.50;;;6.80;99.90;;;;;;5009876;28;20196;-84
2022/03/31 07:38:33;;;;;;;19.17;17.17;;;6.90;99.90;;;;;;5010123;28;20184;-84
2022/03/31 07:40:59;;;;;;;21.00;18.63;;;6.90;99.90;;;;;;5012078;28;20193;-84
2022/03/31 07:43:27;;;;;;;19.37;16.63;;;7.10;99.90;;;;;;5009616;28;20197;-84
2022/03/31 07:45:53;;;;;;;19.53;17.40;;;7.10;99.90;;;;;;5009621;28;20359;-83
2022/03/31 07:48:19;;;;;;;19.47;17.37;;;7.20;99.90;;;;;;5008868;28;20189;-84
2022/03/31 07:50:45;;;;;;;19.20;17.10;;;7.30;99.90;;;;;;5008792;28;20748;-85
2022/03/31 07:53:11;;;;;;;18.73;16.83;;;7.30;99.90;;;;;;5008301;28;20312;-84
2022/03/31 07:55:37;;;;;;;19.07;17.07;;;7.30;99.90;;;;;;5010832;28;20181;-84
2022/03/31 07:58:03;;;;;;;20.17;17.83;;;7.30;99.90;;;;;;5006389;28;20312;-85
2022/03/31 08:00:29;;;;;;;20.13;17.70;;;7.20;99.90;;;;;;5008231;28;20181;-84
2022/03/31 08:02:57;;;;;;;19.63;17.53;;;7.30;99.90;;;;;;5006557;28;20220;-84
2022/03/31 08:05:25;;;;;;;18.43;16.53;;;7.30;99.90;;;;;;5007924;28;20186;-84
2022/03/31 08:07:51;;;;;;;19.97;17.77;;;7.40;99.90;;;;;;5007880;28;20213;-83
2022/03/31 08:10:18;;;;;;;20.33;17.00;;;7.40;99.90;;;;;;5007345;28;20319;-84
2022/03/31 08:12:45;;;;;;;18.90;16.90;;;7.40;99.90;;;;;;5009375;28;20221;-84
2022/03/31 08:15:14;;;;;;;18.77;16.77;;;7.50;99.90;;;;;;5008318;28;20186;-84
2022/03/31 08:17:39;;;;;;;20.70;16.87;;;7.60;99.90;;;;;;5007303;28;20248;-84
2022/03/31 08:20:10;;;;;;;20.90;16.90;;;7.60;99.90;;;;;;5009591;28;20198;-84
2022/03/31 08:22:38;;;;;;;19.43;16.37;;;7.70;99.90;;;;;;5011568;28;20223;-84
2022/03/31 08:25:06;;;;;;;20.30;17.53;;;7.70;99.90;;;;;;5009068;28;20224;-84
2022/03/31 08:27:32;;;;;;;19.10;17.10;;;7.60;99.90;;;;;;5008141;28;20218;-84
2022/03/31 08:29:59;;;;;;;20.63;18.43;;;7.60;99.90;;;;;;5007260;28;20212;-85
2022/03/31 08:32:25;;;;;;;19.40;16.97;;;7.60;99.90;;;;;;5007766;28;20217;-85
2022/03/31 08:34:50;;;;;;;19.27;17.27;;;7.70;99.90;;;;;;4991907;28;20239;-85
2022/03/31 08:37:16;;;;;;;20.17;17.37;;;7.70;99.90;;;;;;5010193;28;20214;-84
2022/03/31 08:39:42;;;;;;;21.07;18.27;;;7.80;99.90;;;;;;5009411;28;20182;-85
2022/03/31 08:42:08;;;;;;;25.07;19.23;;;7.90;99.90;;;;;;5006244;28;20198;-84
2022/03/31 08:44:36;;;;;;;18.30;16.37;;;7.90;99.90;;;;;;5008758;28;20189;-84
2022/03/31 08:47:02;;;;;;;19.60;17.50;;;7.80;99.90;;;;;;5011367;28;20603;-84
2022/03/31 08:49:29;;;;;;;18.87;16.87;;;7.90;99.90;;;;;;5011614;28;20268;-84
2022/03/31 08:51:56;;;;;;;19.13;16.90;;;8.00;99.90;;;;;;5011662;28;20209;-84
2022/03/31 08:54:21;;;;;;;19.70;17.13;;;7.90;99.90;;;;;;5008704;28;20218;-84
2022/03/31 08:56:47;;;;;;;18.97;16.87;;;8.10;99.90;;;;;;5012018;28;20762;-84
2022/03/31 08:59:13;;;;;;;20.30;17.77;;;8.10;99.90;;;;;;5010033;28;20189;-85
2022/03/31 09:01:39;;;;;;;20.33;18.03;;;8.20;99.90;;;;;;5012114;28;20194;-84
2022/03/31 09:04:06;;;;;;;19.53;17.50;;;8.30;99.90;;;;;;5020360;28;20186;-85
2022/03/31 09:06:32;;;;;;;20.60;18.50;;;8.40;99.90;;;;;;5011963;28;20267;-85
2022/03/31 09:08:59;;;;;;;20.30;17.27;;;8.60;99.90;;;;;;5010674;28;20693;-85
2022/03/31 09:11:37;;;;;;;19.70;17.70;;;8.60;99.90;;;;;;5012085;28;20299;-83
2022/03/31 09:14:04;;;;;;;20.97;18.77;;;8.50;99.90;;;;;;5018796;28;20865;-85
2022/03/31 09:16:34;;;;;;;19.50;17.40;;;8.50;99.90;;;;;;5005487;28;20209;-85
2022/03/31 09:19:09;;;;;;;19.23;16.97;;;8.60;99.90;;;;;;5009237;28;20190;-85
2022/03/31 09:21:57;;;;;;;20.00;17.90;;;8.60;99.90;;;;;;5006343;28;20247;-84
2022/03/31 09:24:24;;;;;;;22.87;17.37;;;8.70;99.90;;;;;;5000385;28;20211;-84
2022/03/31 09:26:51;;;;;;;18.17;16.17;;;8.70;99.90;;;;;;5010019;28;20221;-85
2022/03/31 09:29:19;;;;;;;21.67;17.97;;;8.60;99.90;;;;;;5005671;28;20272;-85
2022/03/31 09:31:47;;;;;;;19.10;16.83;;;8.60;99.90;;;;;;5006528;28;20211;-85
2022/03/31 09:34:13;;;;;;;19.07;16.83;;;8.50;99.90;;;;;;5008395;28;20209;-84
2022/03/31 09:36:49;;;;;;;21.70;17.20;;;8.60;99.90;;;;;;5007185;28;20205;-85
2022/03/31 09:39:17;;;;;;;20.67;17.20;;;8.50;99.90;;;;;;5008694;28;20196;-84
2022/03/31 09:41:46;;;;;;;18.40;16.37;;;8.40;99.90;;;;;;5008435;28;20209;-84
2022/03/31 09:44:23;;;;;;;17.67;15.77;;;8.60;99.90;;;;;;5004787;28;20237;-84
2022/03/31 09:46:50;;;;;;;19.87;16.53;;;8.50;99.90;;;;;;5007825;28;20225;-84
2022/03/31 09:49:18;;;;;;;16.30;14.60;;;8.50;99.90;;;;;;5007933;28;20209;-85
2022/03/31 09:51:46;;;;;;;17.20;15.47;;;8.60;99.90;;;;;;5007539;28;20198;-85
2022/03/31 09:54:12;;;;;;;17.60;15.60;;;8.70;99.90;;;;;;5007359;28;20270;-85
2022/03/31 09:56:39;;;;;;;16.67;15.07;;;8.70;99.90;;;;;;5006077;28;20213;-83
2022/03/31 09:59:07;;;;;;;17.23;15.60;;;8.60;99.90;;;;;;5006276;28;20186;-84
2022/03/31 10:01:34;;;;;;;17.10;15.40;;;8.70;99.90;;;;;;5006350;28;20189;-84
2022/03/31 10:04:02;;;;;;;17.47;15.57;;;8.70;99.90;;;;;;5009607;28;20548;-85
2022/03/31 10:06:27;;;;;;;16.80;14.93;;;8.60;99.90;;;;;;5008104;28;20204;-83
2022/03/31 10:08:56;;;;;;;16.97;15.27;;;8.70;99.90;;;;;;5006315;28;20190;-84
2022/03/31 10:11:23;;;;;;;16.37;14.57;;;8.70;99.90;;;;;;5006245;28;20190;-84
2022/03/31 10:13:57;;;;;;;16.53;14.93;;;8.80;99.90;;;;;;5007350;28;20186;-83
2022/03/31 10:16:42;;;;;;;16.63;14.93;;;8.90;99.90;;;;;;5011227;28;20237;-84
2022/03/31 10:19:08;;;;;;;16.97;15.27;;;8.90;99.90;;;;;;5006101;28;20280;-84
2022/03/31 10:21:34;;;;;;;16.87;15.27;;;9.00;99.90;;;;;;5010349;28;20189;-83
2022/03/31 10:26:44;;;;;;;16.00;14.40;;;9.20;99.40;;;;;;5009210;28;20228;-84
2022/03/31 10:29:16;;;;;;;16.97;15.20;;;9.30;98.30;;;;;;5011235;28;20700;-84
2022/03/31 10:31:46;;;;;;;16.40;14.70;;;9.40;97.70;;;;;;5007604;28;20201;-84
2022/03/31 10:34:14;;;;;;;16.23;14.27;;;9.40;96.00;;;;;;5009000;28;20244;-84
2022/03/31 10:36:47;;;;;;;15.70;14.20;;;9.30;96.70;;;;;;5009239;28;20249;-84
2022/03/31 10:39:31;;;;;;;16.73;14.67;;;9.20;96.80;;;;;;5007772;28;20268;-84
2022/03/31 10:42:02;;;;;;;16.30;14.43;;;9.60;97.20;;;;;;5005460;28;20669;-84
2022/03/31 10:44:28;;;;;;;16.27;14.57;;;9.60;96.90;;;;;;5008115;28;20197;-84
2022/03/31 10:47:11;;;;;;;16.70;14.53;;;9.80;94.20;;;;;;5009898;28;20251;-84
2022/03/31 10:49:37;;;;;;;15.87;14.20;;;9.70;94.30;;;;;;5006618;28;20220;-84
2022/03/31 10:52:23;;;;;;;17.23;15.43;;;9.70;93.60;;;;;;5006314;28;20647;-84
2022/03/31 10:54:50;;;;;;;17.27;14.40;;;9.90;93.20;;;;;;5006824;28;20653;-84
2022/03/31 10:57:17;;;;;;;16.77;15.07;;;9.60;95.00;;;;;;5009865;28;20213;-84
2022/03/31 10:59:44;;;;;;;16.37;14.53;;;9.60;94.80;;;;;;5019831;28;20818;-84
2022/03/31 11:02:19;;;;;;;16.53;14.93;;;9.60;93.60;;;;;;5006087;28;20260;-84
2022/03/31 11:04:56;;;;;;;16.20;14.20;;;9.50;94.60;;;;;;5005285;28;20229;-84
2022/03/31 11:07:28;;;;;;;15.50;14.00;;;9.60;93.90;;;;;;5005911;28;20239;-84
2022/03/31 11:10:05;;;;;;;16.27;14.67;;;9.60;93.50;;;;;;5005464;28;20185;-84
2022/03/31 11:12:32;;;;;;;16.07;14.53;;;9.60;93.90;;;;;;5007106;28;20712;-83
2022/03/31 11:15:11;;;;;;;16.23;14.10;;;9.70;93.60;;;;;;5009113;28;20185;-84
2022/03/31 11:17:40;;;;;;;14.77;13.27;;;9.90;92.70;;;;;;5009257;28;20228;-84
2022/03/31 11:20:16;;;;;;;14.33;12.83;;;10.00;92.10;;;;;;5006410;28;20204;-84
2022/03/31 11:22:54;;;;;;;15.77;13.60;;;10.00;91.30;;;;;;5005415;28;20193;-85
2022/03/31 11:25:21;;;;;;;16.07;13.60;;;10.00;90.20;;;;;;5008201;28;20328;-84
2022/03/31 11:27:48;;;;;;;15.70;14.10;;;9.80;91.20;;;;;;5023176;28;20217;-84
2022/03/31 11:30:18;;;;;;;15.87;14.33;;;9.90;92.60;;;;;;5014868;28;20193;-84
2022/03/31 11:32:45;;;;;;;14.40;12.90;;;9.90;90.60;;;;;;5015070;28;20273;-84
2022/03/31 11:35:19;;;;;;;15.07;13.57;;;9.80;91.40;;;;;;5006367;28;20209;-84
2022/03/31 11:37:52;;;;;;;14.70;13.20;;;9.90;92.80;;;;;;5002527;28;20247;-84
2022/03/31 11:40:21;;;;;;;15.13;13.73;;;10.00;90.20;;;;;;5000977;28;20396;-84
2022/03/31 11:42:48;;;;;;;13.43;12.03;;;10.00;91.20;;;;;;5001722;28;20724;-85
2022/03/31 11:45:38;;;;;;;14.27;12.97;;;10.10;90.30;;;;;;4999654;28;20800;-84
2022/03/31 11:48:08;;;;;;;14.40;12.93;;;10.00;89.60;;;;;;5002179;28;20217;-85
2022/03/31 11:50:36;;;;;;;13.63;12.33;;;10.10;90.50;;;;;;5001536;28;20210;-84
2022/03/31 11:53:03;;;;;;;14.03;12.53;;;10.20;89.40;;;;;;5002069;28;20219;-85
2022/03/31 11:55:29;;;;;;;15.00;13.50;;;10.20;88.70;;;;;;5004986;28;20181;-85
2022/03/31 11:58:00;;;;;;;15.23;13.73;;;10.20;89.00;;;;;;5004990;28;20215;-84
2022/03/31 12:00:28;;;;;;;13.27;11.97;;;10.40;88.30;;;;;;5005104;28;21348;-85
2022/03/31 12:03:13;;;;;;;12.87;11.60;;;10.30;89.10;;;;;;4989528;28;20277;-84
2022/03/31 12:05:39;;;;;;;12.27;11.07;;;10.30;88.10;;;;;;5004196;28;20192;-85
2022/03/31 12:08:06;;;;;;;12.73;11.43;;;10.20;88.80;;;;;;5004274;28;20221;-85
2022/03/31 12:10:32;;;;;;;12.63;11.37;;;10.20;87.70;;;;;;5004468;28;20186;-85
2022/03/31 12:13:01;;;;;;;11.93;10.77;;;10.20;86.80;;;;;;5007362;28;20220;-85
2022/03/31 12:15:29;;;;;;;12.23;11.03;;;10.00;86.40;;;;;;5007467;28;20189;-85
2022/03/31 12:17:59;;;;;;;11.43;10.33;;;9.90;88.70;;;;;;5009540;28;20208;-85
2022/03/31 12:20:26;;;;;;;11.27;10.23;;;9.90;88.90;;;;;;5006014;28;20186;-85
2022/03/31 12:22:52;;;;;;;12.03;10.83;;;10.00;89.60;;;;;;5011540;28;20189;-85
2022/03/31 12:25:35;;;;;;;12.63;11.33;;;9.80;87.90;;;;;;5010209;28;20207;-84
2022/03/31 12:28:08;;;;;;;12.20;10.77;;;9.70;90.20;;;;;;5009237;28;20844;-84
2022/03/31 12:30:39;;;;;;;11.93;10.70;;;9.80;89.90;;;;;;5005644;28;20190;-85
2022/03/31 12:33:16;;;;;;;12.00;10.80;;;9.90;90.10;;;;;;5009867;28;20293;-84
2022/03/31 12:35:42;;;;;;;12.83;11.63;;;10.00;89.50;;;;;;5007564;28;20256;-85
2022/03/31 12:38:09;;;;;;;11.67;10.47;;;10.00;89.50;;;;;;5009014;28;20209;-85
2022/03/31 12:40:35;;;;;;;12.60;11.40;;;10.00;89.70;;;;;;5009613;28;20569;-84
2022/03/31 12:43:01;;;;;;;12.27;11.07;;;10.10;88.20;;;;;;5011191;28;20190;-84